| time (UTC) | temp C | wind direction | speed KPH | gust KPH | rain 1hr cm | rain 24hr cm | rain mn cm | humidity % | barometer mb |
| 20260508214905 | 15 | 250 | 3.2 | 4.8 | 0.00 | 0.00 | 0.00 | 55 | 1019.6 |
| 20260508214305 | 13 | 253 | 3.2 | 4.8 | 0.00 | 0.00 | 0.00 | 57 | 1019.5 |
| 20260508213705 | 13 | 238 | 4.8 | 4.8 | 0.00 | 0.00 | 0.00 | 65 | 1019.5 |
| 20260508213105 | 12 | 237 | 4.8 | 8.0 | 0.00 | 0.00 | 0.00 | 62 | 1019.5 |
| 20260508211905 | 11 | 255 | 4.8 | 8.0 | 0.00 | 0.00 | 0.00 | 65 | 1019.4 |
| 20260508211305 | 11 | 234 | 3.2 | 8.0 | 0.00 | 0.00 | 0.00 | 64 | 1019.4 |
| 20260508210704 | 10 | 233 | 3.2 | 4.8 | 0.00 | 0.00 | 0.00 | 63 | 1019.2 |
| 20260508205504 | 11 | 215 | 3.2 | 8.0 | 0.00 | 0.00 | 0.00 | 61 | 1019.0 |
| 20260508204904 | 11 | 217 | 3.2 | 4.8 | 0.00 | 0.00 | 0.00 | 59 | 1019.0 |
| 20260508204304 | 10 | 197 | 3.2 | 4.8 | 0.00 | 0.00 | 0.00 | 60 | 1019.0 |
| 20260508203704 | 10 | 182 | 3.2 | 4.8 | 0.00 | 0.00 | 0.00 | 57 | 1019.0 |
| 20260508203104 | 11 | 171 | 1.6 | 3.2 | 0.00 | 0.00 | 0.00 | 60 | 1019.0 |
| 20260508201904 | 10 | 201 | 4.8 | 8.0 | 0.00 | 0.00 | 0.00 | 60 | 1018.6 |
| 20260508201305 | 10 | 186 | 4.8 | 8.0 | 0.00 | 0.00 | 0.00 | 61 | 1018.6 |
| 20260508200104 | 10 | 211 | 4.8 | 9.7 | 0.00 | 0.00 | 0.00 | 64 | 1018.5 |
| 20260508195504 | 10 | 216 | 4.8 | 9.7 | 0.00 | 0.00 | 0.00 | 62 | 1018.5 |
| 20260508194304 | 10 | 202 | 3.2 | 4.8 | 0.00 | 0.00 | 0.00 | 61 | 1018.1 |
| 20260508193704 | 10 | 211 | 3.2 | 4.8 | 0.00 | 0.00 | 0.00 | 60 | 1018.0 |
| 20260508193104 | 10 | 240 | 3.2 | 4.8 | 0.00 | 0.00 | 0.00 | 59 | 1018.0 |
| 20260508191904 | 10 | 190 | 3.2 | 4.8 | 0.00 | 0.00 | 0.00 | 57 | 1018.0 |
| 20260508190704 | 10 | 240 | 4.8 | 4.8 | 0.00 | 0.00 | 0.00 | 57 | 1018.0 |
| 20260508190104 | 10 | 238 | 4.8 | 6.4 | 0.00 | 0.00 | 0.00 | 56 | 1018.0 |
| 20260508184904 | 10 | 242 | 4.8 | 9.7 | 0.00 | 0.00 | 0.00 | 56 | 1017.8 |
| 20260508184305 | 10 | 219 | 4.8 | 9.7 | 0.00 | 0.00 | 0.00 | 56 | 1017.9 |
| 20260508183104 | 10 | 197 | 3.2 | 4.8 | 0.00 | 0.00 | 0.00 | 57 | 1017.7 |
| 20260508181904 | 10 | 200 | 3.2 | 6.4 | 0.00 | 0.00 | 0.00 | 58 | 1017.5 |
| 20260508181305 | 10 | 195 | 3.2 | 6.4 | 0.00 | 0.00 | 0.00 | 56 | 1017.5 |
| 20260508180705 | 10 | 188 | 3.2 | 4.8 | 0.00 | 0.00 | 0.00 | 58 | 1017.4 |
| 20260508180104 | 10 | 180 | 3.2 | 4.8 | 0.00 | 0.00 | 0.00 | 57 | 1017.4 |
| 20260508175504 | 10 | 219 | 3.2 | 4.8 | 0.00 | 0.00 | 0.00 | 59 | 1017.4 |
| 20260508174904 | 10 | 258 | 3.2 | 4.8 | 0.00 | 0.00 | 0.00 | 58 | 1017.4 |
| 20260508173704 | 10 | 248 | 3.2 | 4.8 | 0.00 | 0.00 | 0.00 | 61 | 1017.2 |
| 20260508171904 | 10 | 207 | 4.8 | 4.8 | 0.00 | 0.00 | 0.00 | 56 | 1017.5 |
| 20260508170704 | 10 | 224 | 4.8 | 6.4 | 0.00 | 0.00 | 0.00 | 56 | 1017.5 |
| 20260508170104 | 10 | 243 | 3.2 | 6.4 | 0.00 | 0.00 | 0.00 | 55 | 1017.6 |
| 20260508165504 | 10 | 257 | 3.2 | 4.8 | 0.00 | 0.00 | 0.00 | 56 | 1017.8 |
| 20260508164904 | 10 | 230 | 3.2 | 4.8 | 0.00 | 0.00 | 0.00 | 57 | 1017.9 |
| 20260508163704 | 10 | 192 | 3.2 | 4.8 | 0.00 | 0.00 | 0.00 | 58 | 1017.6 |
| 20260508163104 | 10 | 183 | 1.6 | 4.8 | 0.00 | 0.00 | 0.00 | 56 | 1017.6 |
| 20260508162505 | 11 | 219 | 1.6 | 3.2 | 0.00 | 0.00 | 0.00 | 55 | 1017.7 |
| 20260508161905 | 11 | 260 | 3.2 | 4.8 | 0.00 | 0.00 | 0.00 | 54 | 1017.8 |
| 20260508161305 | 11 | 255 | 4.8 | 6.4 | 0.00 | 0.00 | 0.00 | 55 | 1017.7 |
| 20260508160105 | 11 | 226 | 4.8 | 6.4 | 0.00 | 0.00 | 0.00 | 57 | 1017.8 |
| 20260508155505 | 11 | 248 | 4.8 | 4.8 | 0.00 | 0.00 | 0.00 | 55 | 1017.8 |
| 20260508154305 | 11 | 196 | 3.2 | 4.8 | 0.00 | 0.00 | 0.00 | 59 | 1017.9 |
| 20260508153705 | 11 | 184 | 3.2 | 4.8 | 0.00 | 0.00 | 0.00 | 57 | 1018.0 |
| 20260508152505 | 11 | 227 | 4.8 | 8.0 | 0.00 | 0.00 | 0.00 | 55 | 1017.9 |
| 20260508151905 | 11 | 243 | 1.6 | 4.8 | 0.00 | 0.00 | 0.00 | 58 | 1018.0 |
| 20260508150705 | 11 | 258 | 4.8 | 6.4 | 0.00 | 0.00 | 0.00 | 55 | 1017.8 |
| 20260508145505 | 11 | 239 | 4.8 | 6.4 | 0.00 | 0.00 | 0.00 | 58 | 1017.9 |
| 20260508144905 | 11 | 240 | 3.2 | 4.8 | 0.00 | 0.00 | 0.00 | 57 | 1018.1 |
| 20260508144305 | 12 | 227 | 3.2 | 4.8 | 0.00 | 0.00 | 0.00 | 55 | 1018.1 |
| 20260508143705 | 12 | 233 | 3.2 | 4.8 | 0.00 | 0.00 | 0.00 | 55 | 1018.1 |
| 20260508142505 | 12 | 200 | 3.2 | 4.8 | 0.00 | 0.00 | 0.00 | 55 | 1018.2 |
| 20260508140105 | 12 | 208 | 3.2 | 3.2 | 0.00 | 0.00 | 0.00 | 52 | 1018.3 |
| 20260508135504 | 12 | 221 | 3.2 | 3.2 | 0.00 | 0.00 | 0.00 | 54 | 1018.3 |
| 20260508134304 | 12 | 260 | 3.2 | 4.8 | 0.00 | 0.00 | 0.00 | 62 | 1018.4 |
| 20260508133704 | 12 | 229 | 3.2 | 4.8 | 0.00 | 0.00 | 0.00 | 66 | 1018.5 |
| 20260508133104 | 12 | 243 | 1.6 | 4.8 | 0.00 | 0.00 | 0.00 | 65 | 1018.5 |
| 20260508132505 | 12 | 266 | 1.6 | 4.8 | 0.00 | 0.00 | 0.00 | 64 | 1018.4 |
| 20260508131904 | 12 | 262 | 1.6 | 3.2 | 0.00 | 0.00 | 0.00 | 60 | 1018.5 |
| 20260508131304 | 12 | 144 | 1.6 | 6.4 | 0.00 | 0.00 | 0.00 | 60 | 1018.5 |
| 20260508130705 | 12 | 125 | 1.6 | 6.4 | 0.00 | 0.00 | 0.00 | 58 | 1018.6 |
| 20260508130105 | 12 | 205 | 1.6 | 3.2 | 0.00 | 0.00 | 0.00 | 56 | 1018.5 |
| 20260508125505 | 12 | 175 | 3.2 | 4.8 | 0.00 | 0.00 | 0.00 | 60 | 1018.5 |
| 20260508124905 | 13 | 132 | 3.2 | 6.4 | 0.00 | 0.00 | 0.00 | 58 | 1018.5 |
| 20260508124304 | 13 | 109 | 4.8 | 6.4 | 0.00 | 0.00 | 0.00 | 56 | 1018.5 |
| 20260508123705 | 13 | 134 | 3.2 | 6.4 | 0.00 | 0.00 | 0.00 | 53 | 1018.5 |
| 20260508121305 | 13 | 171 | 3.2 | 6.4 | 0.00 | 0.00 | 0.00 | 53 | 1018.5 |
| 20260508120705 | 13 | 181 | 3.2 | 4.8 | 0.00 | 0.00 | 0.00 | 54 | 1018.5 |
| 20260508120104 | 13 | 162 | 3.2 | 4.8 | 0.00 | 0.00 | 0.00 | 58 | 1018.5 |
| 20260508115504 | 13 | 173 | 3.2 | 4.8 | 0.00 | 0.00 | 0.00 | 57 | 1018.5 |
| 20260508114904 | 13 | 175 | 3.2 | 4.8 | 0.00 | 0.00 | 0.00 | 52 | 1018.8 |
| 20260508114304 | 13 | 176 | 3.2 | 4.8 | 0.00 | 0.00 | 0.00 | 63 | 1018.8 |
| 20260508113105 | 13 | 157 | 3.2 | 4.8 | 0.00 | 0.00 | 0.00 | 74 | 1018.9 |
| 20260508112504 | 13 | 164 | 3.2 | 4.8 | 0.00 | 0.00 | 0.00 | 76 | 1018.9 |
| 20260508111905 | 13 | 155 | 3.2 | 4.8 | 0.00 | 0.00 | 0.00 | 77 | 1019.0 |
| 20260508111305 | 13 | 141 | 3.2 | 4.8 | 0.00 | 0.00 | 0.00 | 76 | 1019.0 |
| 20260508105504 | 13 | 153 | 3.2 | 4.8 | 0.00 | 0.00 | 0.00 | 78 | 1018.8 |
| 20260508104904 | 13 | 151 | 3.2 | 4.8 | 0.00 | 0.00 | 0.00 | 78 | 1018.6 |
| 20260508104304 | 13 | 140 | 3.2 | 4.8 | 0.00 | 0.00 | 0.00 | 78 | 1018.6 |
| 20260508103704 | 13 | 128 | 3.2 | 4.8 | 0.00 | 0.00 | 0.00 | 79 | 1018.7 |
| 20260508103105 | 13 | 145 | 3.2 | 4.8 | 0.00 | 0.00 | 0.00 | 82 | 1018.6 |
| 20260508102505 | 14 | 163 | 3.2 | 6.4 | 0.00 | 0.00 | 0.00 | 80 | 1018.5 |
| 20260508101905 | 14 | 163 | 3.2 | 6.4 | 0.00 | 0.00 | 0.00 | 80 | 1018.3 |
| 20260508101304 | 14 | 159 | 1.6 | 4.8 | 0.00 | 0.00 | 0.00 | 80 | 1018.3 |
| 20260508100104 | 14 | 114 | 3.2 | 4.8 | 0.00 | 0.00 | 0.00 | 80 | 1018.2 |
| 20260508095504 | 15 | 152 | 1.6 | 4.8 | 0.00 | 0.00 | 0.00 | 79 | 1018.2 |
| 20260508094305 | 15 | 110 | 3.2 | 6.4 | 0.00 | 0.00 | 0.00 | 79 | 1018.0 |
| 20260508093704 | 15 | 125 | 6.4 | 9.7 | 0.00 | 0.00 | 0.00 | 79 | 1018.0 |
| 20260508093104 | 15 | 146 | 4.8 | 9.7 | 0.00 | 0.00 | 0.00 | 76 | 1017.9 |
| 20260508092504 | 15 | 146 | 4.8 | 6.4 | 0.00 | 0.00 | 0.00 | 76 | 1017.8 |
| 20260508091904 | 15 | 143 | 4.8 | 6.4 | 0.00 | 0.00 | 0.00 | 75 | 1017.8 |
| 20260508090705 | 16 | 131 | 4.8 | 6.4 | 0.00 | 0.00 | 0.00 | 74 | 1017.7 |
| 20260508090105 | 16 | 131 | 4.8 | 6.4 | 0.00 | 0.00 | 0.00 | 70 | 1017.5 |
| 20260508085504 | 16 | 128 | 4.8 | 9.7 | 0.00 | 0.00 | 0.00 | 71 | 1017.4 |
| 20260508084904 | 16 | 126 | 4.8 | 9.7 | 0.00 | 0.00 | 0.00 | 71 | 1017.3 |
| 20260508084305 | 17 | 122 | 6.4 | 8.0 | 0.00 | 0.00 | 0.00 | 70 | 1017.4 |
| 20260508083705 | 17 | 122 | 6.4 | 12.9 | 0.00 | 0.00 | 0.00 | 67 | 1017.3 |
| 20260508083105 | 17 | 117 | 8.0 | 12.9 | 0.00 | 0.00 | 0.00 | 66 | 1017.2 |
| 20260508081304 | 18 | 133 | 6.4 | 11.3 | 0.00 | 0.00 | 0.00 | 61 | 1016.9 |
| 20260508080704 | 20 | 130 | 6.4 | 11.3 | 0.00 | 0.00 | 0.00 | 56 | 1016.8 |
| 20260508080105 | 20 | 131 | 8.0 | 14.5 | 0.00 | 0.00 | 0.00 | 54 | 1016.6 |
| 20260508075505 | 21 | 128 | 8.0 | 11.3 | 0.00 | 0.00 | 0.00 | 53 | 1016.5 |
| 20260508074904 | 21 | 127 | 8.0 | 12.9 | 0.00 | 0.00 | 0.00 | 52 | 1016.5 |
| 20260508074304 | 21 | 124 | 8.0 | 12.9 | 0.00 | 0.00 | 0.00 | 52 | 1016.5 |
| 20260508073704 | 21 | 121 | 8.0 | 12.9 | 0.00 | 0.00 | 0.00 | 52 | 1016.3 |
| 20260508073105 | 22 | 114 | 8.0 | 14.5 | 0.00 | 0.00 | 0.00 | 50 | 1016.3 |
| 20260508072505 | 22 | 108 | 11.3 | 16.1 | 0.00 | 0.00 | 0.00 | 49 | 1016.2 |
| 20260508070704 | 22 | 120 | 8.0 | 14.5 | 0.00 | 0.00 | 0.00 | 51 | 1015.9 |
| 20260508070104 | 23 | 114 | 8.0 | 11.3 | 0.00 | 0.00 | 0.00 | 50 | 1015.9 |
| 20260508065505 | 23 | 115 | 9.7 | 12.9 | 0.00 | 0.00 | 0.00 | 49 | 1015.8 |
| 20260508064905 | 24 | 110 | 11.3 | 16.1 | 0.00 | 0.00 | 0.00 | 47 | 1015.6 |
| 20260508063705 | 25 | 102 | 9.7 | 16.1 | 0.00 | 0.00 | 0.00 | 47 | 1015.5 |
| 20260508063105 | 25 | 106 | 8.0 | 12.9 | 0.00 | 0.00 | 0.00 | 46 | 1015.5 |
| 20260508062505 | 25 | 105 | 8.0 | 11.3 | 0.00 | 0.00 | 0.00 | 46 | 1015.3 |
| 20260508061905 | 26 | 102 | 8.0 | 11.3 | 0.00 | 0.00 | 0.00 | 45 | 1015.2 |
| 20260508061305 | 26 | 105 | 6.4 | 9.7 | 0.00 | 0.00 | 0.00 | 45 | 1015.2 |
| 20260508060705 | 26 | 97 | 6.4 | 9.7 | 0.00 | 0.00 | 0.00 | 44 | 1015.2 |
| 20260508060104 | 26 | 86 | 4.8 | 8.0 | 0.00 | 0.00 | 0.00 | 41 | 1015.0 |
| 20260508054305 | 27 | 202 | 4.8 | 9.7 | 0.00 | 0.00 | 0.00 | 42 | 1014.9 |
| 20260508053705 | 27 | 199 | 4.8 | 11.3 | 0.00 | 0.00 | 0.00 | 41 | 1015.0 |
| 20260508053105 | 27 | 215 | 4.8 | 12.9 | 0.00 | 0.00 | 0.00 | 40 | 1015.0 |
| 20260508052505 | 27 | 198 | 4.8 | 12.9 | 0.00 | 0.00 | 0.00 | 41 | 1014.9 |
| 20260508051905 | 27 | 174 | 4.8 | 8.0 | 0.00 | 0.00 | 0.00 | 41 | 1014.9 |
| 20260508051305 | 26 | 157 | 4.8 | 9.7 | 0.00 | 0.00 | 0.00 | 41 | 1014.9 |
| 20260508050705 | 26 | 152 | 6.4 | 9.7 | 0.00 | 0.00 | 0.00 | 41 | 1014.8 |
| 20260508044905 | 26 | 198 | 6.4 | 11.3 | 0.00 | 0.00 | 0.00 | 42 | 1014.8 |
| 20260508044304 | 27 | 174 | 4.8 | 11.3 | 0.00 | 0.00 | 0.00 | 40 | 1014.8 |
| 20260508043704 | 27 | 179 | 4.8 | 11.3 | 0.00 | 0.00 | 0.00 | 42 | 1015.0 |
| 20260508043104 | 27 | 208 | 4.8 | 11.3 | 0.00 | 0.00 | 0.00 | 42 | 1015.0 |
| 20260508042505 | 27 | 200 | 4.8 | 9.7 | 0.00 | 0.00 | 0.00 | 41 | 1015.1 |
| 20260508041904 | 27 | 210 | 6.4 | 9.7 | 0.00 | 0.00 | 0.00 | 42 | 1015.0 |
| 20260508040105 | 27 | 165 | 6.4 | 9.7 | 0.00 | 0.00 | 0.00 | 43 | 1015.2 |
| 20260508035505 | 27 | 181 | 4.8 | 9.7 | 0.00 | 0.00 | 0.00 | 43 | 1015.2 |
| 20260508034904 | 27 | 199 | 4.8 | 11.3 | 0.00 | 0.00 | 0.00 | 43 | 1015.3 |
| 20260508034305 | 27 | 197 | 6.4 | 11.3 | 0.00 | 0.00 | 0.00 | 42 | 1015.5 |
| 20260508033705 | 27 | 172 | 4.8 | 11.3 | 0.00 | 0.00 | 0.00 | 42 | 1015.6 |
| 20260508032505 | 27 | 188 | 4.8 | 9.7 | 0.00 | 0.00 | 0.00 | 43 | 1015.7 |
| 20260508031904 | 27 | 184 | 4.8 | 8.0 | 0.00 | 0.00 | 0.00 | 42 | 1015.7 |
| 20260508030705 | 26 | 176 | 4.8 | 9.7 | 0.00 | 0.00 | 0.00 | 43 | 1016.0 |
| 20260508030105 | 26 | 179 | 4.8 | 9.7 | 0.00 | 0.00 | 0.00 | 44 | 1016.1 |
| 20260508025505 | 26 | 193 | 6.4 | 11.3 | 0.00 | 0.00 | 0.00 | 44 | 1016.2 |
| 20260508024905 | 26 | 191 | 6.4 | 12.9 | 0.00 | 0.00 | 0.00 | 44 | 1016.2 |
| 20260508023104 | 26 | 211 | 6.4 | 11.3 | 0.00 | 0.00 | 0.00 | 43 | 1016.7 |
| 20260508022505 | 26 | 217 | 6.4 | 12.9 | 0.00 | 0.00 | 0.00 | 44 | 1016.7 |
| 20260508021905 | 25 | 195 | 8.0 | 12.9 | 0.00 | 0.00 | 0.00 | 44 | 1016.8 |
| 20260508021305 | 25 | 163 | 8.0 | 14.5 | 0.00 | 0.00 | 0.00 | 44 | 1016.9 |
| 20260508020704 | 25 | 157 | 8.0 | 16.1 | 0.00 | 0.00 | 0.00 | 45 | 1017.0 |
| 20260508020104 | 25 | 187 | 8.0 | 16.1 | 0.00 | 0.00 | 0.00 | 45 | 1017.2 |
| 20260508015504 | 25 | 210 | 6.4 | 11.3 | 0.00 | 0.00 | 0.00 | 46 | 1017.3 |
| 20260508012505 | 25 | 112 | 9.7 | 19.3 | 0.00 | 0.00 | 0.00 | 45 | 1017.8 |
| 20260508011905 | 25 | 114 | 8.0 | 19.3 | 0.00 | 0.00 | 0.00 | 46 | 1017.9 |
| 20260508011305 | 25 | 156 | 4.8 | 11.3 | 0.00 | 0.00 | 0.00 | 46 | 1018.0 |
| 20260508010705 | 25 | 137 | 6.4 | 11.3 | 0.00 | 0.00 | 0.00 | 42 | 1018.2 |
| 20260508005504 | 25 | 157 | 4.8 | 8.0 | 0.00 | 0.00 | 0.00 | 44 | 1018.3 |
| 20260508004904 | 25 | 215 | 6.4 | 8.0 | 0.00 | 0.00 | 0.00 | 46 | 1018.4 |
| 20260508004305 | 24 | 220 | 6.4 | 12.9 | 0.00 | 0.00 | 0.00 | 47 | 1018.3 |
| 20260508003705 | 23 | 209 | 6.4 | 12.9 | 0.00 | 0.00 | 0.00 | 48 | 1018.5 |
| 20260508003105 | 23 | 193 | 3.2 | 11.3 | 0.00 | 0.00 | 0.00 | 49 | 1018.4 |
| 20260508001905 | 23 | 196 | 6.4 | 9.7 | 0.00 | 0.00 | 0.00 | 48 | 1018.7 |
| 20260508001305 | 22 | 237 | 4.8 | 9.7 | 0.00 | 0.00 | 0.00 | 49 | 1018.6 |
| 20260508000105 | 22 | 198 | 4.8 | 9.7 | 0.00 | 0.00 | 0.00 | 50 | 1018.7 |
| 20260507235505 | 22 | 169 | 6.4 | 11.3 | 0.00 | 0.00 | 0.00 | 50 | 1018.5 |
| 20260507234905 | 23 | 138 | 9.7 | 17.7 | 0.00 | 0.00 | 0.00 | 48 | 1018.5 |
| 20260507234305 | 23 | 115 | 9.7 | 17.7 | 0.00 | 0.00 | 0.00 | 48 | 1018.5 |
| 20260507233705 | 23 | 145 | 4.8 | 11.3 | 0.00 | 0.00 | 0.00 | 49 | 1018.5 |
| 20260507233105 | 23 | 168 | 6.4 | 9.7 | 0.00 | 0.00 | 0.00 | 51 | 1018.6 |
| 20260507232504 | 23 | 245 | 4.8 | 8.0 | 0.00 | 0.00 | 0.00 | 51 | 1018.5 |
| 20260507231905 | 22 | 267 | 6.4 | 9.7 | 0.00 | 0.00 | 0.00 | 52 | 1018.6 |
| 20260507231305 | 21 | 261 | 6.4 | 9.7 | 0.00 | 0.00 | 0.00 | 54 | 1018.7 |
| 20260507230705 | 21 | 246 | 6.4 | 9.7 | 0.00 | 0.00 | 0.00 | 54 | 1018.5 |
| 20260507230105 | 21 | 243 | 6.4 | 11.3 | 0.00 | 0.00 | 0.00 | 55 | 1018.5 |
| 20260507225505 | 20 | 238 | 4.8 | 8.0 | 0.00 | 0.00 | 0.00 | 57 | 1018.4 |
| 20260507224905 | 19 | 232 | 6.4 | 9.7 | 0.00 | 0.00 | 0.00 | 59 | 1018.4 |
| 20260507224304 | 19 | 229 | 6.4 | 9.7 | 0.00 | 0.00 | 0.00 | 60 | 1018.3 |
| 20260507223705 | 18 | 246 | 6.4 | 11.3 | 0.00 | 0.00 | 0.00 | 62 | 1018.2 |
| 20260507223105 | 18 | 242 | 6.4 | 11.3 | 0.00 | 0.00 | 0.00 | 62 | 1018.2 |
| 20260507220705 | 18 | 234 | 6.4 | 14.5 | 0.00 | 0.00 | 0.00 | 63 | 1018.1 |
| 20260507220105 | 18 | 237 | 6.4 | 11.3 | 0.00 | 0.00 | 0.00 | 62 | 1018.2 |
| 20260507215504 | 18 | 233 | 6.4 | 11.3 | 0.00 | 0.00 | 0.00 | 62 | 1018.0 |